createdAt,value
2023-02-28T00:01:13.994Z,1.92
2023-02-28T00:03:17.554Z,2.25
2023-02-28T00:05:23.384Z,1.77
2023-02-28T00:07:26.610Z,1.30
2023-02-28T00:09:30.002Z,2.00
2023-02-28T00:11:33.349Z,1.83
2023-02-28T00:13:39.322Z,1.80
2023-02-28T00:15:43.554Z,2.35
2023-02-28T00:17:48.379Z,1.65
2023-02-28T00:19:52.286Z,1.40
2023-02-28T00:21:55.813Z,1.25
2023-02-28T00:23:59.528Z,1.95
2023-02-28T00:26:03.481Z,1.92
2023-02-28T00:28:07.141Z,1.52
2023-02-28T00:30:13.529Z,2.25
2023-02-28T00:32:17.140Z,1.80
2023-02-28T00:34:22.192Z,1.98
2023-02-28T00:36:25.715Z,2.28
2023-02-28T00:38:29.202Z,2.08
2023-02-28T00:40:32.939Z,2.17
2023-02-28T00:42:37.022Z,2.00
2023-02-28T00:44:40.742Z,2.05
2023-02-28T00:46:44.304Z,1.70
2023-02-28T00:48:47.938Z,1.65
2023-02-28T00:50:53.279Z,1.67
2023-02-28T00:52:56.703Z,1.30
2023-02-28T00:55:00.390Z,1.70
2023-02-28T00:57:04.253Z,2.10
2023-02-28T00:59:09.228Z,1.60
2023-02-28T01:01:13.084Z,1.67
2023-02-28T01:03:17.336Z,1.73
2023-02-28T01:05:20.819Z,1.80
2023-02-28T01:07:26.092Z,1.63
2023-02-28T01:09:30.734Z,1.80
2023-02-28T01:11:36.601Z,1.23
2023-02-28T01:13:40.196Z,1.63
2023-02-28T01:15:52.360Z,1.52
2023-02-28T01:17:56.289Z,1.45
2023-02-28T01:19:59.838Z,1.40
2023-02-28T01:22:04.838Z,1.50
2023-02-28T01:24:10.236Z,1.02
2023-02-28T01:26:16.096Z,1.23
2023-02-28T01:28:19.695Z,1.23
2023-02-28T01:30:23.476Z,1.60
2023-02-28T01:32:27.151Z,1.30
2023-02-28T01:34:30.740Z,1.58
2023-02-28T01:36:34.342Z,1.10
2023-02-28T01:38:38.132Z,1.40
2023-02-28T01:40:43.178Z,1.35
2023-02-28T01:42:47.659Z,1.15
2023-02-28T01:45:05.705Z,1.30
2023-02-28T01:47:09.305Z,0.80
2023-02-28T01:49:17.743Z,0.90
2023-02-28T01:51:25.686Z,1.45
2023-02-28T01:53:36.788Z,1.08
2023-02-28T01:55:42.503Z,1.35
2023-02-28T01:57:51.052Z,1.73
2023-02-28T02:00:00.848Z,1.52
2023-02-28T02:02:05.257Z,0.60
2023-02-28T02:04:09.699Z,1.13
2023-02-28T02:06:13.238Z,0.75
2023-02-28T02:08:23.039Z,1.05
2023-02-28T02:10:34.073Z,1.30
2023-02-28T02:12:54.674Z,0.98
2023-02-28T02:15:05.463Z,1.20
2023-02-28T02:17:20.886Z,1.27
2023-02-28T02:19:48.631Z,2.05
2023-02-28T02:22:23.641Z,1.00
2023-02-28T02:24:50.008Z,1.33
2023-02-28T02:27:07.043Z,1.00
2023-02-28T02:29:50.135Z,0.80
2023-02-28T02:32:06.667Z,1.00
2023-02-28T02:34:33.845Z,1.77
2023-02-28T02:36:42.344Z,1.35
2023-02-28T02:38:52.375Z,1.27
2023-02-28T02:41:04.655Z,1.63
2023-02-28T02:43:15.690Z,1.33
2023-02-28T02:45:24.985Z,2.15
2023-02-28T02:47:33.261Z,1.10
2023-02-28T02:49:40.785Z,1.20
2023-02-28T02:51:46.772Z,1.50
2023-02-28T02:53:54.196Z,1.65
2023-02-28T02:56:00.348Z,1.60
2023-02-28T02:58:07.128Z,1.10
2023-02-28T03:00:12.500Z,1.45
2023-02-28T03:02:20.359Z,1.23
2023-02-28T03:04:29.663Z,1.35
2023-02-28T03:06:34.568Z,1.10
2023-02-28T03:08:39.961Z,1.05
2023-02-28T03:10:45.406Z,1.13
2023-02-28T03:13:21.700Z,1.38
2023-02-28T03:15:35.379Z,1.30
2023-02-28T03:17:56.802Z,1.25
2023-02-28T03:20:11.281Z,1.52
2023-02-28T03:22:32.536Z,1.20
2023-02-28T03:24:43.685Z,0.80
2023-02-28T03:26:55.404Z,1.33
2023-02-28T03:29:06.530Z,1.33
2023-02-28T03:31:17.614Z,1.08
2023-02-28T03:33:26.682Z,1.10
2023-02-28T03:35:35.598Z,1.30
2023-02-28T03:37:45.381Z,1.17
2023-02-28T03:39:53.026Z,1.55
2023-02-28T03:42:02.329Z,1.20
2023-02-28T03:44:11.182Z,1.73
2023-02-28T03:46:22.353Z,0.98
2023-02-28T03:48:33.422Z,1.13
2023-02-28T03:50:40.617Z,1.48
2023-02-28T03:52:51.963Z,1.17
2023-02-28T03:57:08.609Z,1.15
2023-02-28T03:59:16.981Z,1.33
2023-02-28T04:01:26.333Z,1.40
2023-02-28T04:03:29.961Z,1.13
2023-02-28T04:05:34.370Z,1.10
2023-02-28T04:07:38.114Z,1.70
2023-02-28T04:09:43.564Z,1.00
2023-02-28T04:11:52.630Z,1.10
2023-02-28T04:13:56.188Z,1.25
2023-02-28T04:15:59.596Z,1.83
2023-02-28T04:18:03.934Z,1.30
2023-02-28T04:20:10.765Z,1.20
2023-02-28T04:22:14.743Z,1.00
2023-02-28T04:24:20.353Z,1.42
2023-02-28T04:26:25.350Z,0.70
2023-02-28T04:28:28.966Z,1.15
2023-02-28T04:30:33.718Z,1.00
2023-02-28T04:32:37.270Z,1.02
2023-02-28T04:34:41.129Z,1.52
2023-02-28T04:36:44.855Z,1.38
2023-02-28T04:38:48.919Z,1.20
2023-02-28T04:40:52.537Z,1.38
2023-02-28T04:42:57.428Z,1.08
2023-02-28T04:45:00.968Z,1.25
2023-02-28T04:47:04.405Z,1.38
2023-02-28T04:49:08.058Z,1.25
2023-02-28T04:51:13.371Z,1.25
2023-02-28T04:53:16.796Z,1.02
2023-02-28T04:55:20.496Z,1.00
2023-02-28T04:57:24.180Z,1.65
2023-02-28T04:59:29.392Z,1.45
2023-02-28T05:01:35.996Z,1.52
2023-02-28T05:03:39.766Z,1.25
2023-02-28T05:05:43.390Z,2.05
2023-02-28T05:07:47.414Z,1.75
2023-02-28T05:09:51.015Z,1.90
2023-02-28T05:11:54.869Z,1.95
2023-02-28T05:13:58.626Z,2.33
2023-02-28T05:16:03.665Z,2.03
2023-02-28T05:18:07.213Z,1.33
2023-02-28T05:20:16.172Z,1.08
2023-02-28T05:22:19.986Z,0.90
2023-02-28T05:24:25.007Z,0.90
2023-02-28T05:26:29.506Z,1.23
2023-02-28T05:28:33.021Z,1.00
2023-02-28T05:30:36.776Z,0.70
2023-02-28T05:32:44.005Z,1.55
2023-02-28T05:34:47.714Z,1.15
2023-02-28T05:36:51.378Z,1.27
2023-02-28T05:38:54.989Z,1.77
2023-02-28T05:40:58.558Z,1.55
2023-02-28T05:43:02.249Z,1.95
2023-02-28T05:45:06.606Z,1.05
2023-02-28T05:47:10.174Z,1.77
2023-02-28T05:49:15.244Z,1.42
2023-02-28T05:55:26.925Z,0.70
2023-02-28T05:57:30.406Z,1.55
2023-02-28T05:59:34.217Z,1.40
2023-02-28T06:01:39.554Z,1.23
2023-02-28T06:03:43.015Z,1.27
2023-02-28T06:05:48.432Z,1.45
2023-02-28T06:07:51.871Z,1.25
2023-02-28T06:09:55.460Z,1.35
2023-02-28T06:12:00.440Z,1.13
2023-02-28T06:14:04.953Z,1.55
2023-02-28T06:16:09.249Z,1.42
2023-02-28T06:18:12.790Z,1.50
2023-02-28T06:20:16.305Z,2.50
2023-02-28T06:22:21.357Z,1.73
2023-02-28T06:24:26.306Z,1.65
2023-02-28T06:26:29.847Z,1.52
2023-02-28T06:28:33.756Z,1.80
2023-02-28T06:30:37.356Z,1.77
2023-02-28T06:32:40.983Z,1.10
2023-02-28T06:34:44.810Z,1.48
2023-02-28T06:36:48.340Z,1.60
2023-02-28T06:38:55.897Z,1.73
2023-02-28T06:41:00.908Z,1.60
2023-02-28T06:43:04.838Z,1.45
2023-02-28T06:45:10.648Z,1.42
2023-02-28T06:47:14.425Z,1.63
2023-02-28T06:49:18.150Z,2.10
2023-02-28T06:51:25.442Z,1.73
2023-02-28T06:53:29.153Z,1.95
2023-02-28T06:55:34.265Z,2.20
2023-02-28T06:59:41.556Z,2.63
2023-02-28T07:01:45.387Z,2.13
2023-02-28T07:03:53.331Z,1.80
2023-02-28T07:05:57.750Z,2.60
2023-02-28T07:08:01.460Z,2.20
2023-02-28T07:10:05.451Z,2.15
2023-02-28T07:12:10.508Z,2.15
2023-02-28T07:14:14.741Z,2.45
2023-02-28T07:16:18.463Z,1.80
2023-02-28T07:18:22.159Z,2.83
2023-02-28T07:20:26.208Z,2.58
2023-02-28T07:22:30.007Z,2.67
2023-02-28T07:24:33.673Z,2.33
2023-02-28T07:26:37.429Z,2.42
2023-02-28T07:28:43.437Z,2.88
2023-02-28T07:30:47.057Z,2.88
2023-02-28T07:32:50.811Z,2.95
2023-02-28T07:34:54.348Z,3.00
2023-02-28T07:36:59.933Z,2.50
2023-02-28T07:39:07.919Z,2.92
2023-02-28T07:41:12.704Z,2.42
2023-02-28T07:43:16.517Z,2.63
2023-02-28T07:45:21.462Z,3.08
2023-02-28T07:47:25.634Z,2.47
2023-02-28T07:49:29.077Z,2.70
2023-02-28T07:51:33.366Z,3.38
2023-02-28T07:53:37.091Z,1.80
2023-02-28T07:55:40.704Z,1.80
2023-02-28T07:57:44.570Z,1.67
2023-02-28T07:59:48.300Z,2.03
2023-02-28T08:01:53.857Z,1.30
2023-02-28T08:03:58.266Z,1.45
2023-02-28T08:06:03.488Z,1.73
2023-02-28T08:12:14.805Z,1.63
2023-02-28T08:14:18.984Z,1.70
2023-02-28T08:16:23.623Z,1.75
2023-02-28T08:18:28.692Z,1.52
2023-02-28T08:20:32.321Z,1.55
2023-02-28T08:22:35.933Z,1.75
2023-02-28T08:24:39.859Z,1.50
2023-02-28T08:26:43.674Z,1.80
2023-02-28T08:28:47.714Z,2.00
2023-02-28T08:30:51.397Z,1.70
2023-02-28T08:32:55.682Z,1.35
2023-02-28T08:35:01.514Z,0.90
2023-02-28T08:37:05.143Z,1.35
2023-02-28T08:39:10.264Z,1.40
2023-02-28T08:43:18.125Z,1.38
2023-02-28T08:45:21.920Z,1.67
2023-02-28T08:47:25.494Z,1.20
2023-02-28T08:49:29.759Z,1.20
2023-02-28T08:51:34.752Z,1.17
2023-02-28T08:53:38.880Z,1.10
2023-02-28T08:55:42.381Z,1.40
2023-02-28T08:57:46.221Z,0.90
2023-02-28T08:59:49.874Z,1.30
2023-02-28T09:01:53.571Z,1.73
2023-02-28T09:03:58.262Z,1.25
2023-02-28T09:06:03.361Z,1.63
2023-02-28T09:08:08.442Z,0.98
2023-02-28T09:12:15.775Z,1.20
2023-02-28T09:14:19.711Z,1.10
2023-02-28T09:16:23.848Z,1.20
2023-02-28T09:18:28.107Z,0.93
2023-02-28T09:20:31.655Z,1.00
2023-02-28T09:22:35.374Z,1.35
2023-02-28T09:29:07.797Z,0.95
2023-02-28T09:31:15.490Z,1.20
2023-02-28T09:33:21.899Z,0.95
2023-02-28T09:35:27.995Z,1.10
2023-02-28T09:37:32.342Z,1.20
2023-02-28T09:39:35.996Z,1.83
2023-02-28T09:41:49.736Z,1.10
2023-02-28T09:43:58.130Z,2.00
2023-02-28T09:46:08.728Z,1.00
2023-02-28T09:48:18.339Z,1.02
2023-02-28T09:50:34.405Z,1.15
2023-02-28T09:52:40.218Z,0.90
2023-02-28T09:54:44.395Z,1.20
2023-02-28T09:56:54.542Z,1.20
2023-02-28T09:59:07.941Z,1.73
2023-02-28T10:01:21.695Z,1.63
2023-02-28T10:03:31.618Z,1.55
2023-02-28T10:05:43.362Z,1.13
2023-02-28T10:08:06.260Z,1.23
2023-02-28T10:10:24.427Z,1.20
2023-02-28T10:12:32.508Z,1.17
2023-02-28T10:14:37.932Z,1.00
2023-02-28T10:16:47.861Z,1.08
2023-02-28T10:18:57.953Z,1.67
2023-02-28T10:21:02.460Z,1.02
2023-02-28T10:23:14.799Z,1.20
2023-02-28T10:25:21.537Z,0.60
2023-02-28T10:27:27.941Z,0.88
2023-02-28T10:29:36.114Z,0.90
2023-02-28T10:31:41.733Z,1.05
2023-02-28T10:33:46.923Z,1.00
2023-02-28T10:35:51.184Z,1.10
2023-02-28T10:37:58.723Z,0.85
2023-02-28T10:40:03.088Z,0.90
2023-02-28T10:42:08.061Z,0.85
2023-02-28T10:44:24.082Z,0.85
2023-02-28T10:46:33.432Z,0.80
2023-02-28T10:48:40.519Z,0.80
2023-02-28T10:50:48.077Z,0.75
2023-02-28T10:52:52.445Z,0.75
2023-02-28T10:55:18.268Z,0.93
2023-02-28T10:57:25.640Z,0.82
2023-02-28T10:59:32.741Z,0.40
2023-02-28T11:01:44.525Z,0.85
2023-02-28T11:03:49.130Z,0.50
2023-02-28T11:05:53.239Z,0.90
2023-02-28T11:07:59.463Z,0.90
2023-02-28T11:10:04.744Z,0.68
2023-02-28T11:12:11.268Z,1.70
2023-02-28T11:14:23.203Z,1.02
2023-02-28T11:16:36.576Z,0.60
2023-02-28T11:18:46.760Z,0.95
2023-02-28T11:20:52.525Z,0.45
2023-02-28T11:22:58.545Z,0.40
2023-02-28T11:25:04.869Z,0.95
2023-02-28T11:27:11.700Z,0.85
2023-02-28T11:29:21.944Z,0.80
2023-02-28T11:31:28.615Z,0.70
2023-02-28T11:33:34.223Z,0.80
2023-02-28T11:35:41.976Z,0.95
2023-02-28T11:37:47.213Z,0.93
2023-02-28T11:39:51.215Z,0.43
2023-02-28T11:42:45.354Z,0.70
2023-02-28T11:45:05.274Z,0.90
2023-02-28T11:47:16.460Z,0.80
2023-02-28T11:51:37.673Z,1.05
2023-02-28T11:53:57.972Z,1.08
2023-02-28T11:56:09.181Z,0.88
2023-02-28T12:00:45.209Z,1.15
2023-02-28T12:03:09.807Z,1.20
2023-02-28T12:05:23.974Z,0.85
2023-02-28T12:07:52.836Z,0.75
2023-02-28T12:10:09.663Z,1.10
2023-02-28T12:12:26.452Z,0.77
2023-02-28T12:14:59.599Z,0.80
2023-02-28T12:17:20.236Z,1.08
2023-02-28T12:19:29.456Z,1.30
2023-02-28T12:21:45.226Z,1.00
2023-02-28T12:24:05.576Z,1.15
2023-02-28T12:26:18.603Z,1.20
2023-02-28T12:28:27.980Z,0.98
2023-02-28T12:30:35.000Z,1.10
2023-02-28T12:32:44.094Z,1.50
2023-02-28T12:34:53.620Z,1.13
2023-02-28T12:37:01.292Z,1.00
2023-02-28T12:39:14.230Z,1.05
2023-02-28T12:41:21.359Z,1.17
2023-02-28T12:43:29.519Z,0.90
2023-02-28T12:45:42.171Z,1.15
2023-02-28T12:47:48.911Z,1.02
2023-02-28T12:49:56.685Z,1.00
2023-02-28T12:52:02.193Z,0.60
2023-02-28T12:54:17.098Z,1.55
2023-02-28T12:56:33.258Z,1.48
2023-02-28T12:58:40.489Z,1.00
2023-02-28T13:01:07.974Z,1.08
2023-02-28T13:03:37.593Z,1.52
2023-02-28T13:06:17.155Z,1.20
2023-02-28T13:08:41.780Z,1.40
2023-02-28T13:10:48.721Z,1.20
2023-02-28T13:12:53.830Z,1.10
2023-02-28T13:15:12.602Z,1.00
2023-02-28T13:17:22.345Z,1.08
2023-02-28T13:19:28.442Z,1.55
2023-02-28T13:21:33.115Z,1.20
2023-02-28T13:23:42.625Z,1.08
2023-02-28T13:25:56.707Z,1.83
2023-02-28T13:28:05.309Z,1.05
2023-02-28T13:30:45.860Z,1.50
2023-02-28T13:33:20.094Z,1.40
2023-02-28T13:35:59.418Z,1.67
2023-02-28T13:38:50.695Z,1.33
2023-02-28T13:41:00.010Z,0.90
2023-02-28T13:43:04.602Z,1.30
2023-02-28T13:45:29.186Z,1.25
2023-02-28T13:47:36.235Z,1.42
2023-02-28T13:49:44.576Z,1.42
2023-02-28T13:51:51.156Z,1.50
2023-02-28T13:54:06.718Z,1.27
2023-02-28T13:56:29.985Z,1.30
2023-02-28T13:58:56.376Z,1.30
2023-02-28T14:01:25.258Z,1.38
2023-02-28T14:03:50.252Z,1.23
2023-02-28T14:06:26.325Z,1.13
2023-02-28T14:08:30.422Z,1.13
2023-02-28T14:10:37.543Z,1.20
2023-02-28T14:13:03.428Z,1.02
2023-02-28T14:15:28.746Z,1.13
2023-02-28T14:17:32.571Z,1.30
2023-02-28T14:19:39.562Z,1.55
2023-02-28T14:21:58.816Z,0.90
2023-02-28T14:24:52.659Z,1.70
2023-02-28T14:27:10.730Z,1.27
2023-02-28T14:29:33.120Z,1.20
2023-02-28T14:31:39.574Z,0.85
2023-02-28T14:34:02.203Z,0.98
2023-02-28T14:36:12.040Z,0.82
2023-02-28T14:38:23.962Z,1.00
2023-02-28T14:40:32.371Z,1.13
2023-02-28T14:42:42.879Z,1.60
2023-02-28T14:44:57.675Z,1.10
2023-02-28T14:47:06.810Z,1.52
2023-02-28T14:49:19.568Z,1.80
2023-02-28T14:51:24.477Z,1.50
2023-02-28T14:53:32.668Z,1.10
2023-02-28T14:55:38.398Z,1.77
2023-02-28T14:57:45.306Z,1.35
2023-02-28T14:59:49.194Z,1.20
2023-02-28T15:01:53.429Z,0.63
2023-02-28T15:04:04.088Z,1.30
2023-02-28T15:06:15.505Z,1.30
2023-02-28T15:08:21.188Z,1.30
2023-02-28T15:10:28.769Z,0.98
2023-02-28T15:12:32.449Z,0.90
2023-02-28T15:14:39.476Z,1.30
2023-02-28T15:16:48.073Z,1.00
2023-02-28T15:18:55.215Z,1.25
2023-02-28T15:21:01.385Z,1.00
2023-02-28T15:23:05.081Z,1.10
2023-02-28T15:25:10.420Z,1.10
2023-02-28T15:27:23.411Z,2.05
2023-02-28T15:29:30.343Z,1.05
2023-02-28T15:31:50.280Z,1.20
2023-02-28T15:34:04.925Z,1.52
2023-02-28T15:36:15.709Z,1.38
2023-02-28T15:38:24.685Z,1.45
2023-02-28T15:40:30.675Z,1.52
2023-02-28T15:42:35.535Z,1.10
2023-02-28T15:44:39.223Z,1.27
2023-02-28T15:46:45.583Z,1.45
2023-02-28T15:48:53.960Z,1.33
2023-02-28T15:50:59.912Z,1.67
2023-02-28T15:53:05.557Z,1.30
2023-02-28T15:55:19.810Z,1.88
2023-02-28T15:57:26.716Z,2.15
2023-02-28T15:59:33.658Z,1.58
2023-02-28T16:01:38.936Z,0.88
2023-02-28T16:03:46.738Z,1.55
2023-02-28T16:06:26.579Z,1.92
2023-02-28T16:08:30.200Z,2.08
2023-02-28T16:10:33.885Z,1.40
2023-02-28T16:12:39.517Z,1.67
2023-02-28T16:14:46.536Z,1.20
2023-02-28T16:16:52.986Z,1.65
2023-02-28T16:18:57.137Z,1.30
2023-02-28T16:21:00.677Z,1.27
2023-02-28T16:23:04.450Z,2.10
2023-02-28T16:25:09.151Z,1.95
2023-02-28T16:27:24.069Z,1.73
2023-02-28T16:29:31.190Z,2.05
2023-02-28T16:31:40.227Z,1.73
2023-02-28T16:33:43.717Z,2.67
2023-02-28T16:35:47.367Z,1.83
2023-02-28T16:37:53.212Z,1.35
2023-02-28T16:39:56.738Z,1.52
2023-02-28T16:42:00.322Z,1.77
2023-02-28T16:44:04.400Z,1.73
2023-02-28T16:46:08.185Z,1.90
2023-02-28T16:48:16.091Z,1.95
2023-02-28T16:50:22.332Z,1.75
2023-02-28T16:52:25.759Z,2.63
2023-02-28T16:54:29.591Z,1.98
2023-02-28T16:56:33.707Z,3.13
2023-02-28T16:58:37.785Z,4.63
2023-02-28T17:00:41.597Z,5.07
2023-02-28T17:02:45.335Z,2.75
2023-02-28T17:04:50.282Z,3.50
2023-02-28T17:06:54.220Z,1.92
2023-02-28T17:08:58.794Z,3.83
2023-02-28T17:11:03.466Z,3.95
2023-02-28T17:13:14.941Z,5.43
2023-02-28T17:15:20.652Z,10.02
2023-02-28T17:17:24.680Z,2.38
2023-02-28T17:19:29.227Z,2.10
2023-02-28T17:21:34.596Z,3.35
2023-02-28T17:23:38.048Z,1.88
2023-02-28T17:25:41.806Z,5.10
2023-02-28T17:27:45.811Z,3.45
2023-02-28T17:29:49.494Z,2.78
2023-02-28T17:31:53.136Z,3.17
2023-02-28T17:33:57.068Z,3.67
2023-02-28T17:36:00.794Z,2.25
2023-02-28T17:38:06.191Z,4.40
2023-02-28T17:42:19.935Z,2.20
2023-02-28T17:44:26.188Z,3.03
2023-02-28T17:46:30.308Z,2.05
2023-02-28T17:48:34.310Z,2.85
2023-02-28T17:50:37.952Z,2.83
2023-02-28T17:52:41.716Z,4.85
2023-02-28T17:54:46.818Z,3.08
2023-02-28T17:56:50.498Z,5.80
2023-02-28T17:58:56.147Z,5.18
2023-02-28T18:00:59.819Z,4.45
2023-02-28T18:03:03.396Z,7.13
2023-02-28T18:05:08.320Z,2.45
2023-02-28T18:07:14.636Z,2.97
2023-02-28T18:09:22.731Z,2.80
2023-02-28T18:11:43.685Z,2.30
2023-02-28T18:13:48.365Z,4.20
2023-02-28T18:15:51.993Z,2.45
2023-02-28T18:17:55.752Z,2.53
2023-02-28T18:19:59.770Z,2.38
2023-02-28T18:22:03.401Z,2.38
2023-02-28T18:24:07.406Z,2.70
2023-02-28T18:26:10.954Z,2.53
2023-02-28T18:28:16.204Z,2.88
2023-02-28T18:30:20.821Z,2.65
2023-02-28T18:32:24.473Z,3.67
2023-02-28T18:34:28.472Z,2.10
2023-02-28T18:36:32.437Z,4.18
2023-02-28T18:38:36.531Z,2.60
2023-02-28T18:40:40.710Z,3.08
2023-02-28T18:42:44.609Z,3.50
2023-02-28T18:44:49.525Z,3.17
2023-02-28T18:48:56.749Z,3.70
2023-02-28T18:51:00.400Z,4.47
2023-02-28T18:53:04.202Z,3.97
2023-02-28T18:55:11.078Z,3.38
2023-02-28T18:57:14.887Z,3.65
2023-02-28T18:59:18.798Z,3.50
2023-02-28T19:01:27.105Z,4.60
2023-02-28T19:03:30.815Z,4.15
2023-02-28T19:05:34.757Z,3.50
2023-02-28T19:07:38.272Z,4.18
2023-02-28T19:09:42.145Z,4.55
2023-02-28T19:11:45.712Z,4.57
2023-02-28T19:13:50.238Z,2.67
2023-02-28T19:16:03.074Z,2.70
2023-02-28T19:18:08.274Z,4.00
2023-02-28T19:20:13.608Z,2.65
2023-02-28T19:24:20.649Z,2.45
2023-02-28T19:26:26.511Z,2.63
2023-02-28T19:28:31.468Z,2.65
2023-02-28T19:30:35.392Z,2.22
2023-02-28T19:32:38.965Z,2.45
2023-02-28T19:34:44.317Z,3.30
2023-02-28T19:36:47.932Z,2.30
2023-02-28T19:38:52.416Z,2.72
2023-02-28T19:41:01.986Z,3.33
2023-02-28T19:43:06.257Z,2.15
2023-02-28T19:45:14.916Z,2.15
2023-02-28T19:47:18.904Z,2.63
2023-02-28T19:49:24.414Z,2.63
2023-02-28T19:51:34.218Z,2.13
2023-02-28T19:53:40.739Z,2.33
2023-02-28T19:55:44.752Z,3.15
2023-02-28T19:57:48.459Z,2.83
2023-02-28T19:59:52.642Z,2.60
2023-02-28T20:01:56.580Z,2.78
2023-02-28T20:04:00.820Z,2.30
2023-02-28T20:06:07.418Z,2.78
2023-02-28T20:08:13.421Z,2.15
2023-02-28T20:10:17.124Z,2.45
2023-02-28T20:12:24.641Z,2.50
2023-02-28T20:14:29.200Z,3.55
2023-02-28T20:16:34.516Z,3.22
2023-02-28T20:18:39.251Z,5.03
2023-02-28T20:20:42.866Z,2.60
2023-02-28T20:22:52.401Z,2.20
2023-02-28T20:24:58.332Z,2.55
2023-02-28T20:27:02.077Z,2.33
2023-02-28T20:29:05.870Z,1.83
2023-02-28T20:31:13.991Z,2.53
2023-02-28T20:33:20.515Z,2.65
2023-02-28T20:35:24.336Z,2.17
2023-02-28T20:37:29.481Z,2.70
2023-02-28T20:39:33.090Z,2.90
2023-02-28T20:41:38.173Z,3.78
2023-02-28T20:43:42.311Z,2.60
2023-02-28T20:45:52.895Z,3.75
2023-02-28T20:47:56.389Z,3.53
2023-02-28T20:50:00.019Z,3.38
2023-02-28T20:52:04.421Z,3.72
2023-02-28T20:54:08.569Z,4.43
2023-02-28T20:56:16.276Z,2.50
2023-02-28T20:58:21.366Z,2.00
2023-02-28T21:00:26.543Z,2.20
2023-02-28T21:02:30.541Z,2.25
2023-02-28T21:04:34.543Z,2.45
2023-02-28T21:06:43.028Z,2.13
2023-02-28T21:08:47.272Z,2.65
2023-02-28T21:10:51.103Z,1.80
2023-02-28T21:12:57.908Z,1.92
2023-02-28T21:15:02.926Z,1.92
2023-02-28T21:17:09.239Z,2.13
2023-02-28T21:19:12.833Z,1.70
2023-02-28T21:21:18.831Z,1.52
2023-02-28T21:23:23.535Z,2.33
2023-02-28T21:27:30.797Z,2.40
2023-02-28T21:29:34.643Z,1.70
2023-02-28T21:31:39.914Z,1.73
2023-02-28T21:33:43.838Z,1.90
2023-02-28T21:35:47.620Z,2.00
2023-02-28T21:37:51.277Z,2.90
2023-02-28T21:39:54.918Z,1.83
2023-02-28T21:42:04.319Z,2.10
2023-02-28T21:44:08.132Z,1.85
2023-02-28T21:46:23.291Z,2.17
2023-02-28T21:48:28.480Z,2.55
2023-02-28T21:50:32.288Z,2.03
2023-02-28T21:52:36.089Z,1.92
2023-02-28T21:54:39.753Z,1.60
2023-02-28T21:56:43.588Z,1.90
2023-02-28T21:58:49.500Z,1.95
2023-02-28T22:00:53.128Z,2.28
2023-02-28T22:02:56.702Z,2.25
2023-02-28T22:05:03.716Z,2.72
2023-02-28T22:07:07.701Z,2.10
2023-02-28T22:09:12.050Z,2.47
2023-02-28T22:11:17.464Z,2.03
2023-02-28T22:13:21.393Z,2.67
2023-02-28T22:15:25.123Z,2.78
2023-02-28T22:17:28.811Z,6.82
2023-02-28T22:19:32.419Z,3.28
2023-02-28T22:21:39.792Z,2.80
2023-02-28T22:23:44.765Z,3.35
2023-02-28T22:25:48.338Z,3.38
2023-02-28T22:27:51.964Z,2.42
2023-02-28T22:29:56.539Z,3.10
2023-02-28T22:32:00.306Z,2.67
2023-02-28T22:34:07.245Z,3.45
2023-02-28T22:36:12.352Z,2.55
2023-02-28T22:38:17.492Z,2.72
2023-02-28T22:42:24.563Z,3.10
2023-02-28T22:44:28.544Z,2.92
2023-02-28T22:46:34.069Z,2.15
2023-02-28T22:48:38.637Z,1.83
2023-02-28T22:50:42.121Z,2.03
2023-02-28T22:52:45.924Z,2.33
2023-02-28T22:54:53.497Z,2.28
2023-02-28T22:56:57.102Z,3.53
2023-02-28T22:59:02.434Z,3.42
2023-02-28T23:01:10.329Z,4.18
2023-02-28T23:03:14.008Z,4.65
2023-02-28T23:05:17.741Z,4.75
2023-02-28T23:07:21.355Z,4.57
2023-02-28T23:09:24.942Z,4.80
2023-02-28T23:11:32.953Z,4.30
2023-02-28T23:13:37.124Z,3.83
2023-02-28T23:15:42.922Z,3.85
2023-02-28T23:17:46.480Z,4.30
2023-02-28T23:19:49.937Z,3.65
2023-02-28T23:21:54.379Z,4.13
2023-02-28T23:23:58.266Z,3.70
2023-02-28T23:26:01.710Z,3.60
2023-02-28T23:28:07.094Z,4.68
2023-02-28T23:30:12.111Z,8.13
2023-02-28T23:32:15.955Z,3.65
2023-02-28T23:34:26.468Z,3.80
2023-02-28T23:36:30.708Z,3.97
2023-02-28T23:38:34.526Z,4.20
2023-02-28T23:40:38.384Z,4.32
2023-02-28T23:42:41.843Z,3.88
2023-02-28T23:44:47.048Z,4.00
2023-02-28T23:48:55.178Z,3.58
2023-02-28T23:51:03.104Z,4.13
2023-02-28T23:53:07.802Z,3.67
2023-02-28T23:55:12.406Z,3.58
2023-02-28T23:57:15.976Z,3.60
2023-02-28T23:59:19.543Z,4.20
